sensor_id;sensor_type;location;lat;lon;timestamp;noise_LAeq;noise_LA_min;noise_LA_max;noise_LA01;noise_LA95
40465;Laerm;30489;48.982;8.394;2023-06-14T00:01:59;42.02;40.62;43.09;;
40465;Laerm;30489;48.982;8.394;2023-06-14T00:04:08;41.99;40.63;43.24;;
40465;Laerm;30489;48.982;8.394;2023-06-14T00:09:00;41.91;40.62;43.19;;
40465;Laerm;30489;48.982;8.394;2023-06-14T00:21:23;41.85;40.33;43.14;;
40465;Laerm;30489;48.982;8.394;2023-06-14T00:23:33;41.85;40.33;43.29;;
40465;Laerm;30489;48.982;8.394;2023-06-14T00:25:43;41.87;40.03;43.14;;
40465;Laerm;30489;48.982;8.394;2023-06-14T00:33:40;41.76;39.92;43.04;;
40465;Laerm;30489;48.982;8.394;2023-06-14T00:35:51;41.73;40.23;42.88;;
40465;Laerm;30489;48.982;8.394;2023-06-14T00:40:37;41.73;40.23;42.98;;
40465;Laerm;30489;48.982;8.394;2023-06-14T00:46:04;41.70;39.92;42.93;;
40465;Laerm;30489;48.982;8.394;2023-06-14T00:48:34;41.69;40.13;43.19;;
40465;Laerm;30489;48.982;8.394;2023-06-14T00:51:04;41.69;40.18;43.04;;
40465;Laerm;30489;48.982;8.394;2023-06-14T00:56:13;41.69;40.03;42.93;;
40465;Laerm;30489;48.982;8.394;2023-06-14T01:01:23;41.71;39.92;42.98;;
40465;Laerm;30489;48.982;8.394;2023-06-14T01:03:37;41.75;40.33;43.14;;
40465;Laerm;30489;48.982;8.394;2023-06-14T01:05:53;41.72;40.03;42.93;;
40465;Laerm;30489;48.982;8.394;2023-06-14T01:11:04;41.72;40.23;42.93;;
40465;Laerm;30489;48.982;8.394;2023-06-14T01:16:07;41.78;40.43;42.98;;
40465;Laerm;30489;48.982;8.394;2023-06-14T01:18:22;41.77;40.23;43.14;;
40465;Laerm;30489;48.982;8.394;2023-06-14T01:21:19;41.73;40.13;42.93;;
40465;Laerm;30489;48.982;8.394;2023-06-14T01:23:48;41.72;40.33;42.98;;
40465;Laerm;30489;48.982;8.394;2023-06-14T01:26:19;41.74;40.13;43.04;;
40465;Laerm;30489;48.982;8.394;2023-06-14T01:28:32;41.74;40.03;43.14;;
40465;Laerm;30489;48.982;8.394;2023-06-14T01:36:33;41.76;40.03;43.19;;
40465;Laerm;30489;48.982;8.394;2023-06-14T01:38:42;41.77;40.33;42.98;;
40465;Laerm;30489;48.982;8.394;2023-06-14T01:41:10;41.79;40.13;43.04;;
40465;Laerm;30489;48.982;8.394;2023-06-14T01:48:26;41.82;40.03;43.14;;
40465;Laerm;30489;48.982;8.394;2023-06-14T01:50:56;41.84;40.03;43.14;;
40465;Laerm;30489;48.982;8.394;2023-06-14T01:53:07;41.85;40.03;42.93;;
40465;Laerm;30489;48.982;8.394;2023-06-14T02:06:41;41.88;40.23;43.14;;
40465;Laerm;30489;48.982;8.394;2023-06-14T02:11:43;41.89;40.53;43.29;;
40465;Laerm;30489;48.982;8.394;2023-06-14T02:18:54;41.90;40.43;43.04;;
40465;Laerm;30489;48.982;8.394;2023-06-14T02:21:04;41.90;40.53;43.29;;
40465;Laerm;30489;48.982;8.394;2023-06-14T02:23:40;41.90;39.92;43.04;;
40465;Laerm;30489;48.982;8.394;2023-06-14T02:32:06;41.91;40.33;43.19;;
40465;Laerm;30489;48.982;8.394;2023-06-14T02:34:31;41.90;40.23;43.29;;
40465;Laerm;30489;48.982;8.394;2023-06-14T02:36:43;41.90;40.43;43.04;;
40465;Laerm;30489;48.982;8.394;2023-06-14T02:38:57;41.92;40.53;43.19;;
40465;Laerm;30489;48.982;8.394;2023-06-14T02:41:26;41.94;40.23;43.24;;
40465;Laerm;30489;48.982;8.394;2023-06-14T02:46:29;41.91;40.23;42.98;;
40465;Laerm;30489;48.982;8.394;2023-06-14T02:48:42;41.90;40.13;43.19;;
40465;Laerm;30489;48.982;8.394;2023-06-14T02:51:09;41.89;40.13;42.93;;
40465;Laerm;30489;48.982;8.394;2023-06-14T02:53:20;41.89;40.43;43.04;;
40465;Laerm;30489;48.982;8.394;2023-06-14T02:55:48;41.92;40.33;43.19;;
40465;Laerm;30489;48.982;8.394;2023-06-14T02:57:58;41.94;40.33;43.14;;
40465;Laerm;30489;48.982;8.394;2023-06-14T03:03:05;41.92;40.33;43.14;;
40465;Laerm;30489;48.982;8.394;2023-06-14T03:08:35;41.97;40.36;43.14;;
40465;Laerm;30489;48.982;8.394;2023-06-14T03:11:06;41.99;40.62;43.14;;
40465;Laerm;30489;48.982;8.394;2023-06-14T03:16:14;42.00;40.62;43.29;;
40465;Laerm;30489;48.982;8.394;2023-06-14T03:21:16;42.03;40.62;43.19;;
40465;Laerm;30489;48.982;8.394;2023-06-14T03:35:18;42.08;40.53;43.14;;
40465;Laerm;30489;48.982;8.394;2023-06-14T03:55:15;42.08;40.71;43.14;;
40465;Laerm;30489;48.982;8.394;2023-06-14T04:08:48;42.07;40.80;43.29;;
40465;Laerm;30489;48.982;8.394;2023-06-14T04:10:59;42.07;40.53;43.29;;
40465;Laerm;30489;48.982;8.394;2023-06-14T04:13:22;42.07;40.33;43.04;;
40465;Laerm;30489;48.982;8.394;2023-06-14T04:15:35;42.07;40.53;43.14;;
40465;Laerm;30489;48.982;8.394;2023-06-14T04:17:47;42.06;40.80;43.24;;
40465;Laerm;30489;48.982;8.394;2023-06-14T04:23:18;42.05;40.71;43.19;;
40465;Laerm;30489;48.982;8.394;2023-06-14T04:25:39;42.01;40.80;43.14;;
40465;Laerm;30489;48.982;8.394;2023-06-14T04:27:58;42.04;40.53;43.05;;
40465;Laerm;30489;48.982;8.394;2023-06-14T04:30:29;42.04;40.71;43.09;;
40465;Laerm;30489;48.982;8.394;2023-06-14T04:32:50;42.03;40.53;43.24;;
40465;Laerm;30489;48.982;8.394;2023-06-14T04:35:09;42.02;40.71;43.09;;
40465;Laerm;30489;48.982;8.394;2023-06-14T04:43:11;42.02;40.62;43.29;;
40465;Laerm;30489;48.982;8.394;2023-06-14T04:45:42;42.01;40.71;43.24;;
40465;Laerm;30489;48.982;8.394;2023-06-14T04:50:27;42.03;40.62;43.19;;
40465;Laerm;30489;48.982;8.394;2023-06-14T04:55:25;42.01;40.71;43.09;;
40465;Laerm;30489;48.982;8.394;2023-06-14T04:57:36;42.05;40.89;43.14;;
40465;Laerm;30489;48.982;8.394;2023-06-14T05:00:08;42.03;40.71;44.23;;
40465;Laerm;30489;48.982;8.394;2023-06-14T05:02:42;42.00;40.62;43.09;;
40465;Laerm;30489;48.982;8.394;2023-06-14T05:10:43;41.97;40.62;43.19;;
40465;Laerm;30489;48.982;8.394;2023-06-14T05:13:38;42.02;40.43;43.29;;
40465;Laerm;30489;48.982;8.394;2023-06-14T05:15:53;42.04;40.71;43.09;;
40465;Laerm;30489;48.982;8.394;2023-06-14T05:18:17;42.04;40.89;43.44;;
40465;Laerm;30489;48.982;8.394;2023-06-14T05:20:30;42.05;40.43;43.14;;
40465;Laerm;30489;48.982;8.394;2023-06-14T08:55:11;41.64;39.92;42.88;;
40465;Laerm;30489;48.982;8.394;2023-06-14T09:37:10;41.34;39.46;43.14;;
40465;Laerm;30489;48.982;8.394;2023-06-14T10:16:10;41.18;39.34;42.53;;
40465;Laerm;30489;48.982;8.394;2023-06-14T10:39:30;41.03;38.52;42.65;;
40465;Laerm;30489;48.982;8.394;2023-06-14T10:48:00;40.98;38.81;42.47;;
40465;Laerm;30489;48.982;8.394;2023-06-14T11:21:53;40.85;38.95;42.29;;
40465;Laerm;30489;48.982;8.394;2023-06-14T11:24:03;40.84;38.05;42.41;;
40465;Laerm;30489;48.982;8.394;2023-06-14T11:34:56;40.84;38.95;42.41;;
40465;Laerm;30489;48.982;8.394;2023-06-14T11:37:09;40.86;38.81;42.71;;
40465;Laerm;30489;48.982;8.394;2023-06-14T11:50:12;40.85;38.81;42.59;;
40465;Laerm;30489;48.982;8.394;2023-06-14T11:55:01;40.85;38.95;42.29;;
40465;Laerm;30489;48.982;8.394;2023-06-14T11:57:34;40.84;38.95;42.35;;
40465;Laerm;30489;48.982;8.394;2023-06-14T12:00:02;40.84;38.52;42.29;;
40465;Laerm;30489;48.982;8.394;2023-06-14T12:05:05;40.83;38.67;42.88;;
40465;Laerm;30489;48.982;8.394;2023-06-14T12:07:20;40.84;38.52;42.76;;
40465;Laerm;30489;48.982;8.394;2023-06-14T12:15:53;40.87;38.67;43.09;;
40465;Laerm;30489;48.982;8.394;2023-06-14T13:04:53;40.74;38.81;42.47;;
40465;Laerm;30489;48.982;8.394;2023-06-14T13:07:19;40.76;38.21;42.35;;
40465;Laerm;30489;48.982;8.394;2023-06-14T13:33:42;40.75;38.21;42.98;;
40465;Laerm;30489;48.982;8.394;2023-06-14T13:38:54;40.73;38.21;43.33;;
40465;Laerm;30489;48.982;8.394;2023-06-14T13:41:05;40.78;38.67;44.11;;
40465;Laerm;30489;48.982;8.394;2023-06-14T14:11:10;40.59;38.52;42.47;;
40465;Laerm;30489;48.982;8.394;2023-06-14T14:13:41;40.69;38.37;43.14;;
40465;Laerm;30489;48.982;8.394;2023-06-14T14:19:05;40.56;38.21;42.35;;
40465;Laerm;30489;48.982;8.394;2023-06-14T14:24:16;40.54;38.37;42.53;;
40465;Laerm;30489;48.982;8.394;2023-06-14T14:26:39;40.60;38.05;42.93;;
40465;Laerm;30489;48.982;8.394;2023-06-14T14:28:57;40.59;38.21;43.09;;
40465;Laerm;30489;48.982;8.394;2023-06-14T14:31:07;40.54;38.05;43.99;;
40465;Laerm;30489;48.982;8.394;2023-06-14T14:36:11;40.61;38.67;42.22;;
40465;Laerm;30489;48.982;8.394;2023-06-14T14:38:39;40.59;38.37;44.15;;
40465;Laerm;30489;48.982;8.394;2023-06-14T14:40:49;40.58;38.21;42.53;;
40465;Laerm;30489;48.982;8.394;2023-06-14T14:45:57;40.53;38.37;45.45;;
40465;Laerm;30489;48.982;8.394;2023-06-14T14:48:26;40.62;37.70;42.82;;
40465;Laerm;30489;48.982;8.394;2023-06-14T14:51:00;40.56;38.37;42.22;;
40465;Laerm;30489;48.982;8.394;2023-06-14T14:53:35;40.53;38.05;42.35;;
40465;Laerm;30489;48.982;8.394;2023-06-14T14:56:00;40.55;38.21;42.59;;
40465;Laerm;30489;48.982;8.394;2023-06-14T15:00:47;40.51;38.21;42.65;;
40465;Laerm;30489;48.982;8.394;2023-06-14T15:05:31;40.57;38.52;42.47;;
40465;Laerm;30489;48.982;8.394;2023-06-14T15:08:00;40.56;38.21;42.35;;
40465;Laerm;30489;48.982;8.394;2023-06-14T15:10:33;40.54;38.37;42.29;;
40465;Laerm;30489;48.982;8.394;2023-06-14T15:12:58;40.51;38.05;42.41;;
40465;Laerm;30489;48.982;8.394;2023-06-14T15:15:11;40.50;38.52;42.35;;
40465;Laerm;30489;48.982;8.394;2023-06-14T15:20:18;40.52;38.32;42.41;;
40465;Laerm;30489;48.982;8.394;2023-06-14T15:22:51;40.52;38.21;43.77;;
40465;Laerm;30489;48.982;8.394;2023-06-14T15:30:52;40.48;37.70;43.49;;
40465;Laerm;30489;48.982;8.394;2023-06-14T15:33:02;40.48;37.52;42.16;;
40465;Laerm;30489;48.982;8.394;2023-06-14T15:40:15;40.46;38.37;42.47;;
40465;Laerm;30489;48.982;8.394;2023-06-14T15:42:46;40.50;37.88;42.16;;
40465;Laerm;30489;48.982;8.394;2023-06-14T15:50:25;40.44;38.37;42.03;;
40465;Laerm;30489;48.982;8.394;2023-06-14T15:55:22;40.46;38.05;42.65;;
40465;Laerm;30489;48.982;8.394;2023-06-14T15:57:33;40.48;38.32;42.41;;
40465;Laerm;30489;48.982;8.394;2023-06-14T15:59:44;40.47;38.21;42.35;;
40465;Laerm;30489;48.982;8.394;2023-06-14T16:04:48;40.44;38.05;45.66;;
40465;Laerm;30489;48.982;8.394;2023-06-14T16:09:50;40.45;38.37;42.65;;
40465;Laerm;30489;48.982;8.394;2023-06-14T16:12:01;40.43;38.52;42.59;;
40465;Laerm;30489;48.982;8.394;2023-06-14T16:14:23;40.43;38.21;42.16;;
40465;Laerm;30489;48.982;8.394;2023-06-14T16:16:41;40.53;38.05;43.19;;
40465;Laerm;30489;48.982;8.394;2023-06-14T16:19:10;40.41;38.21;42.35;;
40465;Laerm;30489;48.982;8.394;2023-06-14T16:24:39;40.43;38.05;46.35;;
40465;Laerm;30489;48.982;8.394;2023-06-14T16:26:49;40.42;37.12;42.41;;
40465;Laerm;30489;48.982;8.394;2023-06-14T16:32:01;40.43;38.05;44.47;;
40465;Laerm;30489;48.982;8.394;2023-06-14T16:37:31;40.41;38.21;42.93;;
40465;Laerm;30489;48.982;8.394;2023-06-14T16:40:01;40.40;38.05;42.29;;
40465;Laerm;30489;48.982;8.394;2023-06-14T16:42:11;40.40;38.05;42.35;;
40465;Laerm;30489;48.982;8.394;2023-06-14T16:44:36;40.42;38.37;42.29;;
40465;Laerm;30489;48.982;8.394;2023-06-14T16:46:52;40.39;38.05;42.71;;
40465;Laerm;30489;48.982;8.394;2023-06-14T16:54:54;40.40;38.05;42.29;;
40465;Laerm;30489;48.982;8.394;2023-06-14T18:18:51;40.48;38.37;42.29;;
40465;Laerm;30489;48.982;8.394;2023-06-14T18:41:10;40.51;38.21;42.29;;
40465;Laerm;30489;48.982;8.394;2023-06-14T18:51:31;40.52;38.05;42.09;;
40465;Laerm;30489;48.982;8.394;2023-06-14T18:54:03;40.49;38.37;42.16;;
40465;Laerm;30489;48.982;8.394;2023-06-14T19:07:37;40.50;38.05;42.19;;
40465;Laerm;30489;48.982;8.394;2023-06-14T19:10:02;40.52;38.67;42.22;;
40465;Laerm;30489;48.982;8.394;2023-06-14T19:54:22;40.84;38.67;45.20;;
40465;Laerm;30489;48.982;8.394;2023-06-14T19:56:38;40.86;38.81;42.53;;
40465;Laerm;30489;48.982;8.394;2023-06-14T19:58:50;40.84;39.08;42.35;;
40465;Laerm;30489;48.982;8.394;2023-06-14T20:01:01;40.87;38.81;42.47;;
40465;Laerm;30489;48.982;8.394;2023-06-14T20:03:11;40.89;38.52;42.76;;
40465;Laerm;30489;48.982;8.394;2023-06-14T20:05:22;40.90;38.81;42.41;;
40465;Laerm;30489;48.982;8.394;2023-06-14T20:07:34;40.94;38.67;42.59;;
40465;Laerm;30489;48.982;8.394;2023-06-14T20:09:49;40.99;39.08;42.76;;
40465;Laerm;30489;48.982;8.394;2023-06-14T20:12:00;40.97;38.21;44.07;;
40465;Laerm;30489;48.982;8.394;2023-06-14T20:14:10;41.01;39.08;42.65;;
40465;Laerm;30489;48.982;8.394;2023-06-14T20:16:21;41.04;38.67;42.47;;
40465;Laerm;30489;48.982;8.394;2023-06-14T20:18:31;41.07;38.95;42.35;;
40465;Laerm;30489;48.982;8.394;2023-06-14T20:20:41;41.08;39.34;42.65;;
40465;Laerm;30489;48.982;8.394;2023-06-14T20:22:56;41.11;39.34;42.53;;
40465;Laerm;30489;48.982;8.394;2023-06-14T20:25:08;41.15;39.46;42.41;;
40465;Laerm;30489;48.982;8.394;2023-06-14T20:27:18;41.16;39.46;42.59;;
40465;Laerm;30489;48.982;8.394;2023-06-14T20:29:28;41.18;39.46;42.71;;
40465;Laerm;30489;48.982;8.394;2023-06-14T20:31:38;41.18;39.46;43.09;;
40465;Laerm;30489;48.982;8.394;2023-06-14T20:33:51;41.21;39.08;42.59;;
40465;Laerm;30489;48.982;8.394;2023-06-14T20:36:04;41.21;39.34;42.53;;
40465;Laerm;30489;48.982;8.394;2023-06-14T20:38:14;41.23;39.46;42.65;;
40465;Laerm;30489;48.982;8.394;2023-06-14T20:40:24;41.25;39.46;42.65;;
40465;Laerm;30489;48.982;8.394;2023-06-14T20:42:38;41.28;39.21;42.93;;
40465;Laerm;30489;48.982;8.394;2023-06-14T20:44:49;41.31;39.35;42.76;;
40465;Laerm;30489;48.982;8.394;2023-06-14T20:47:02;41.33;39.46;42.59;;
40465;Laerm;30489;48.982;8.394;2023-06-14T20:49:16;41.32;39.34;42.65;;
40465;Laerm;30489;48.982;8.394;2023-06-14T20:51:26;41.31;39.34;42.65;;
40465;Laerm;30489;48.982;8.394;2023-06-14T20:53:37;41.35;39.46;42.53;;
40465;Laerm;30489;48.982;8.394;2023-06-14T20:55:47;41.38;39.58;42.59;;
40465;Laerm;30489;48.982;8.394;2023-06-14T20:57:57;41.43;39.58;43.04;;
40465;Laerm;30489;48.982;8.394;2023-06-14T21:00:08;41.46;39.70;42.88;;
40465;Laerm;30489;48.982;8.394;2023-06-14T21:02:21;41.48;39.81;42.88;;
40465;Laerm;30489;48.982;8.394;2023-06-14T21:04:32;41.53;39.92;42.88;;
40465;Laerm;30489;48.982;8.394;2023-06-14T21:06:44;41.57;40.03;42.93;;
40465;Laerm;30489;48.982;8.394;2023-06-14T21:08:54;41.57;39.70;42.88;;
40465;Laerm;30489;48.982;8.394;2023-06-14T21:11:04;41.61;40.03;42.82;;
40465;Laerm;30489;48.982;8.394;2023-06-14T21:13:15;41.65;39.81;42.88;;
40465;Laerm;30489;48.982;8.394;2023-06-14T21:15:25;41.66;40.23;42.76;;
40465;Laerm;30489;48.982;8.394;2023-06-14T21:17:36;41.69;40.13;42.90;;
40465;Laerm;30489;48.982;8.394;2023-06-14T21:19:46;41.72;40.03;42.93;;
40465;Laerm;30489;48.982;8.394;2023-06-14T21:21:56;41.71;39.99;42.98;;
40465;Laerm;30489;48.982;8.394;2023-06-14T21:24:06;41.76;40.23;42.98;;
40465;Laerm;30489;48.982;8.394;2023-06-14T21:26:17;41.78;40.23;43.14;;
40465;Laerm;30489;48.982;8.394;2023-06-14T21:28:27;41.83;40.43;43.04;;
40465;Laerm;30489;48.982;8.394;2023-06-14T21:30:37;41.84;40.23;43.09;;
40465;Laerm;30489;48.982;8.394;2023-06-14T21:32:47;41.86;40.36;43.24;;
40465;Laerm;30489;48.982;8.394;2023-06-14T21:34:57;41.89;40.33;43.09;;
40465;Laerm;30489;48.982;8.394;2023-06-14T21:37:08;41.91;40.53;43.14;;
40465;Laerm;30489;48.982;8.394;2023-06-14T21:39:20;41.94;40.53;43.29;;
40465;Laerm;30489;48.982;8.394;2023-06-14T21:41:30;41.95;40.62;43.29;;
40465;Laerm;30489;48.982;8.394;2023-06-14T21:43:40;41.97;40.53;43.19;;
40465;Laerm;30489;48.982;8.394;2023-06-14T21:45:50;41.97;40.33;43.24;;
40465;Laerm;30489;48.982;8.394;2023-06-14T21:48:00;41.98;40.53;43.14;;
40465;Laerm;30489;48.982;8.394;2023-06-14T21:50:11;41.98;40.62;43.29;;
40465;Laerm;30489;48.982;8.394;2023-06-14T21:52:21;41.98;40.53;43.19;;
40465;Laerm;30489;48.982;8.394;2023-06-14T21:54:42;42.00;40.71;43.09;;
40465;Laerm;30489;48.982;8.394;2023-06-14T21:56:52;42.01;40.71;43.09;;
40465;Laerm;30489;48.982;8.394;2023-06-14T21:59:03;42.02;40.80;43.24;;
40465;Laerm;30489;48.982;8.394;2023-06-14T22:01:13;42.04;40.62;43.34;;
40465;Laerm;30489;48.982;8.394;2023-06-14T22:03:23;42.04;40.71;43.19;;
40465;Laerm;30489;48.982;8.394;2023-06-14T22:05:33;42.04;40.79;43.19;;
40465;Laerm;30489;48.982;8.394;2023-06-14T22:07:43;42.03;40.33;43.14;;
40465;Laerm;30489;48.982;8.394;2023-06-14T22:12:07;42.04;40.62;43.19;;
40465;Laerm;30489;48.982;8.394;2023-06-14T22:14:17;42.00;40.43;43.14;;
40465;Laerm;30489;48.982;8.394;2023-06-14T22:16:30;42.00;40.62;43.14;;
40465;Laerm;30489;48.982;8.394;2023-06-14T22:18:42;42.01;40.62;43.09;;
40465;Laerm;30489;48.982;8.394;2023-06-14T22:20:55;42.03;40.62;43.14;;
40465;Laerm;30489;48.982;8.394;2023-06-14T22:23:06;42.02;40.62;43.14;;
40465;Laerm;30489;48.982;8.394;2023-06-14T22:25:17;42.01;40.71;43.14;;
40465;Laerm;30489;48.982;8.394;2023-06-14T22:27:28;42.02;40.62;43.04;;
40465;Laerm;30489;48.982;8.394;2023-06-14T22:29:39;41.99;40.80;43.09;;
40465;Laerm;30489;48.982;8.394;2023-06-14T22:31:53;42.01;40.62;43.09;;
40465;Laerm;30489;48.982;8.394;2023-06-14T22:34:03;42.04;40.62;43.19;;
40465;Laerm;30489;48.982;8.394;2023-06-14T22:36:13;42.04;40.62;43.24;;
40465;Laerm;30489;48.982;8.394;2023-06-14T22:38:26;42.06;40.43;43.19;;
40465;Laerm;30489;48.982;8.394;2023-06-14T22:40:37;42.05;40.80;43.14;;
40465;Laerm;30489;48.982;8.394;2023-06-14T22:42:48;42.06;40.62;43.19;;
40465;Laerm;30489;48.982;8.394;2023-06-14T22:44:59;42.05;40.43;43.14;;
40465;Laerm;30489;48.982;8.394;2023-06-14T22:47:12;42.06;40.62;43.29;;
40465;Laerm;30489;48.982;8.394;2023-06-14T22:49:28;42.07;40.71;43.19;;
40465;Laerm;30489;48.982;8.394;2023-06-14T22:51:40;42.07;40.71;43.29;;
40465;Laerm;30489;48.982;8.394;2023-06-14T22:53:52;42.06;40.43;43.29;;
40465;Laerm;30489;48.982;8.394;2023-06-14T22:56:03;42.06;40.89;43.29;;
40465;Laerm;30489;48.982;8.394;2023-06-14T22:58:13;42.08;40.62;43.14;;
40465;Laerm;30489;48.982;8.394;2023-06-14T23:00:25;42.11;40.80;43.29;;
40465;Laerm;30489;48.982;8.394;2023-06-14T23:02:35;42.10;40.89;43.19;;
40465;Laerm;30489;48.982;8.394;2023-06-14T23:04:45;42.11;40.89;43.24;;
40465;Laerm;30489;48.982;8.394;2023-06-14T23:06:56;42.11;41.06;43.14;;
40465;Laerm;30489;48.982;8.394;2023-06-14T23:09:06;42.10;40.71;43.19;;
40465;Laerm;30489;48.982;8.394;2023-06-14T23:11:18;42.11;40.71;43.24;;
40465;Laerm;30489;48.982;8.394;2023-06-14T23:13:31;42.10;40.89;43.24;;
40465;Laerm;30489;48.982;8.394;2023-06-14T23:15:41;42.11;40.98;43.34;;
40465;Laerm;30489;48.982;8.394;2023-06-14T23:17:52;42.11;40.89;43.14;;
40465;Laerm;30489;48.982;8.394;2023-06-14T23:20:02;42.09;40.89;43.29;;
40465;Laerm;30489;48.982;8.394;2023-06-14T23:22:19;42.10;40.62;43.19;;
40465;Laerm;30489;48.982;8.394;2023-06-14T23:24:30;42.12;40.80;43.19;;
40465;Laerm;30489;48.982;8.394;2023-06-14T23:26:44;42.11;40.71;43.34;;
40465;Laerm;30489;48.982;8.394;2023-06-14T23:28:55;42.08;40.62;43.14;;
40465;Laerm;30489;48.982;8.394;2023-06-14T23:31:06;42.08;40.62;43.29;;
40465;Laerm;30489;48.982;8.394;2023-06-14T23:33:18;42.08;40.80;43.19;;
40465;Laerm;30489;48.982;8.394;2023-06-14T23:35:37;42.09;40.71;43.34;;
40465;Laerm;30489;48.982;8.394;2023-06-14T23:37:48;42.09;40.80;43.29;;
40465;Laerm;30489;48.982;8.394;2023-06-14T23:39:58;42.11;40.71;43.24;;
40465;Laerm;30489;48.982;8.394;2023-06-14T23:42:18;42.09;40.89;43.09;;
40465;Laerm;30489;48.982;8.394;2023-06-14T23:44:30;42.10;40.80;43.09;;
40465;Laerm;30489;48.982;8.394;2023-06-14T23:46:47;42.09;40.71;43.24;;
40465;Laerm;30489;48.982;8.394;2023-06-14T23:48:57;42.08;40.80;43.24;;
40465;Laerm;30489;48.982;8.394;2023-06-14T23:51:07;42.09;40.71;43.24;;
40465;Laerm;30489;48.982;8.394;2023-06-14T23:53:17;42.09;40.62;43.34;;
40465;Laerm;30489;48.982;8.394;2023-06-14T23:55:29;42.11;40.71;43.34;;
40465;Laerm;30489;48.982;8.394;2023-06-14T23:57:39;42.10;40.89;43.34;;
40465;Laerm;30489;48.982;8.394;2023-06-14T23:59:50;42.10;40.62;43.24;;
